createdAt,value
2022-08-09T00:04:03.692Z,16.70
2022-08-09T00:08:33.009Z,16.50
2022-08-09T00:13:18.242Z,16.50
2022-08-09T00:18:07.752Z,16.40
2022-08-09T00:22:55.876Z,16.40
2022-08-09T00:27:43.325Z,16.40
2022-08-09T00:32:31.427Z,16.30
2022-08-09T00:37:15.322Z,16.20
2022-08-09T00:44:12.957Z,16.20
2022-08-09T00:47:05.500Z,16.20
2022-08-09T00:51:55.867Z,16.10
2022-08-09T00:56:39.920Z,16.10
2022-08-09T01:01:32.285Z,16.00
2022-08-09T01:06:54.820Z,15.90
2022-08-09T01:11:53.348Z,15.80
2022-08-09T01:16:47.480Z,15.70
2022-08-09T01:21:51.288Z,15.60
2022-08-09T01:26:52.960Z,15.60
2022-08-09T01:32:29.393Z,15.60
2022-08-09T01:36:45.194Z,15.50
2022-08-09T01:41:32.643Z,15.40
2022-08-09T01:46:24.910Z,15.30
2022-08-09T01:51:11.927Z,15.30
2022-08-09T01:56:08.421Z,15.10
2022-08-09T02:00:54.168Z,15.20
2022-08-09T02:06:03.179Z,15.20
2022-08-09T02:10:51.564Z,15.30
2022-08-09T02:15:49.220Z,15.10
2022-08-09T02:20:36.577Z,15.00
2022-08-09T02:25:25.088Z,15.00
2022-08-09T02:30:12.391Z,15.00
2022-08-09T02:35:17.339Z,15.10
2022-08-09T02:40:10.435Z,15.20
2022-08-09T02:45:00.230Z,15.00
2022-08-09T02:50:01.790Z,14.90
2022-08-09T02:54:54.369Z,14.80
2022-08-09T03:00:11.439Z,14.90
2022-08-09T03:04:50.595Z,15.00
2022-08-09T03:09:35.352Z,14.90
2022-08-09T03:14:29.457Z,14.70
2022-08-09T03:19:16.605Z,14.60
2022-08-09T03:24:42.203Z,14.40
2022-08-09T03:29:23.453Z,14.20
2022-08-09T03:34:07.429Z,14.20
2022-08-09T03:38:56.412Z,14.10
2022-08-09T03:43:41.429Z,14.10
2022-08-09T03:48:30.732Z,14.30
2022-08-09T03:53:15.582Z,14.20
2022-08-09T03:58:06.622Z,14.10
2022-08-09T04:03:02.260Z,14.20
2022-08-09T04:07:52.934Z,14.10
2022-08-09T04:12:46.888Z,14.10
2022-08-09T04:17:33.329Z,14.40
2022-08-09T04:22:18.853Z,14.50
2022-08-09T04:27:05.158Z,14.30
2022-08-09T04:31:53.588Z,14.20
2022-08-09T04:36:45.317Z,14.10
2022-08-09T04:41:38.896Z,14.20
2022-08-09T04:46:38.181Z,14.20
2022-08-09T04:51:31.054Z,14.10
2022-08-09T04:56:17.028Z,14.20
2022-08-09T05:01:05.073Z,14.40
2022-08-09T05:06:04.518Z,14.40
2022-08-09T05:10:50.381Z,14.40
2022-08-09T05:15:39.380Z,14.60
2022-08-09T05:20:32.827Z,14.80
2022-08-09T05:25:18.638Z,15.00
2022-08-09T05:30:02.281Z,15.30
2022-08-09T05:34:45.920Z,15.70
2022-08-09T05:39:36.429Z,16.20
2022-08-09T05:44:29.141Z,16.70
2022-08-09T05:50:25.038Z,17.30
2022-08-09T05:54:20.800Z,17.70
2022-08-09T05:59:08.043Z,18.10
2022-08-09T06:03:58.070Z,18.50
2022-08-09T06:08:42.357Z,18.90
2022-08-09T06:13:28.773Z,19.10
2022-08-09T06:18:18.903Z,19.40
2022-08-09T06:23:04.073Z,19.70
2022-08-09T06:27:51.529Z,20.00
2022-08-09T06:32:53.221Z,20.30
2022-08-09T06:37:53.347Z,20.50
2022-08-09T06:42:44.712Z,20.90
2022-08-09T06:47:30.298Z,21.20
2022-08-09T06:52:25.071Z,21.50
2022-08-09T06:57:12.111Z,21.90
2022-08-09T07:02:03.460Z,22.10
2022-08-09T07:06:48.479Z,22.30
2022-08-09T07:11:52.086Z,22.80
2022-08-09T07:16:48.833Z,23.00
2022-08-09T07:21:34.190Z,23.30
2022-08-09T07:26:18.029Z,23.40
2022-08-09T07:31:05.045Z,23.50
2022-08-09T07:35:54.029Z,23.90
2022-08-09T07:41:00.971Z,24.30
2022-08-09T07:45:49.269Z,24.70
2022-08-09T07:50:36.699Z,25.10
2022-08-09T07:55:22.543Z,25.40
2022-08-09T08:00:12.641Z,25.80
2022-08-09T08:05:04.637Z,25.80
2022-08-09T08:10:08.985Z,25.70
2022-08-09T08:14:57.009Z,25.40
2022-08-09T08:19:40.783Z,25.50
2022-08-09T08:24:34.327Z,26.20
2022-08-09T08:29:27.753Z,26.90
2022-08-09T08:34:13.966Z,26.80
2022-08-09T08:38:57.673Z,27.30
2022-08-09T08:43:41.294Z,27.80
2022-08-09T08:48:29.221Z,27.60
2022-08-09T08:53:22.082Z,27.80
2022-08-09T08:58:06.492Z,28.50
2022-08-09T09:02:52.866Z,28.90
2022-08-09T09:07:42.350Z,28.50
2022-08-09T09:12:34.363Z,28.80
2022-08-09T09:17:19.928Z,29.30
2022-08-09T09:22:07.945Z,29.60
2022-08-09T09:26:56.443Z,28.60
2022-08-09T09:32:06.090Z,29.60
2022-08-09T09:36:52.900Z,29.40
2022-08-09T09:41:48.797Z,30.50
2022-08-09T09:46:52.047Z,30.40
2022-08-09T09:51:40.206Z,30.80
2022-08-09T09:56:33.842Z,31.10
2022-08-09T10:01:31.401Z,31.50
2022-08-09T10:06:22.076Z,32.00
2022-08-09T10:11:59.525Z,31.90
2022-08-09T10:16:57.285Z,32.30
2022-08-09T10:21:36.102Z,32.80
2022-08-09T10:26:24.688Z,33.50
2022-08-09T10:36:14.951Z,33.10
2022-08-09T10:40:59.260Z,32.50
2022-08-09T10:45:58.546Z,33.00
2022-08-09T10:51:05.949Z,33.50
2022-08-09T10:55:57.826Z,34.00
2022-08-09T11:01:10.866Z,33.70
2022-08-09T11:06:19.818Z,33.50
2022-08-09T11:11:08.772Z,34.10
2022-08-09T11:16:34.849Z,34.60
2022-08-09T11:22:10.363Z,35.20
2022-08-09T11:27:06.652Z,35.40
2022-08-09T11:31:53.135Z,34.90
2022-08-09T11:36:43.034Z,35.40
2022-08-09T11:41:37.470Z,34.70
2022-08-09T11:46:33.202Z,34.90
2022-08-09T11:52:54.262Z,35.20
2022-08-09T11:56:47.862Z,35.50
2022-08-09T12:02:01.073Z,36.30
2022-08-09T12:06:55.577Z,36.70
2022-08-09T12:12:02.058Z,36.20
2022-08-09T12:16:44.970Z,35.90
2022-08-09T12:21:38.746Z,37.00
2022-08-09T12:26:26.148Z,36.60
2022-08-09T12:31:30.869Z,35.80
2022-08-09T12:36:31.647Z,36.30
2022-08-09T12:41:17.473Z,36.30
2022-08-09T12:46:05.244Z,35.20
2022-08-09T12:50:51.367Z,34.60
2022-08-09T12:56:11.763Z,35.40
2022-08-09T13:00:43.979Z,35.60
2022-08-09T13:06:13.253Z,36.70
2022-08-09T13:10:52.293Z,37.20
2022-08-09T13:15:36.569Z,38.20
2022-08-09T13:20:37.623Z,37.40
2022-08-09T13:25:54.379Z,37.30
2022-08-09T13:30:50.309Z,37.10
2022-08-09T13:36:38.549Z,36.80
2022-08-09T13:41:46.176Z,36.10
2022-08-09T13:46:42.936Z,37.20
2022-08-09T13:51:06.996Z,37.60
2022-08-09T13:55:52.595Z,37.20
2022-08-09T14:00:50.378Z,38.10
2022-08-09T14:06:00.333Z,37.10
2022-08-09T14:10:49.105Z,38.10
2022-08-09T14:16:09.941Z,39.40
2022-08-09T14:20:39.882Z,39.60
2022-08-09T14:25:23.525Z,39.80
2022-08-09T14:30:37.040Z,39.30
2022-08-09T14:35:19.840Z,37.90
2022-08-09T14:40:07.335Z,37.80
2022-08-09T14:45:00.039Z,39.00
2022-08-09T14:50:01.238Z,37.70
2022-08-09T14:54:45.259Z,38.30
2022-08-09T14:59:29.026Z,37.70
2022-08-09T15:04:12.604Z,37.30
2022-08-09T15:09:02.122Z,36.90
2022-08-09T15:13:56.499Z,36.00
2022-08-09T15:18:49.317Z,37.10
2022-08-09T15:24:01.703Z,36.60
2022-08-09T15:28:42.106Z,35.20
2022-08-09T15:34:01.811Z,34.40
2022-08-09T15:38:30.070Z,34.30
2022-08-09T15:43:14.316Z,34.50
2022-08-09T15:48:06.525Z,34.50
2022-08-09T15:53:06.077Z,33.80
2022-08-09T15:57:51.948Z,33.70
2022-08-09T16:02:37.607Z,33.50
2022-08-09T16:07:25.706Z,33.70
2022-08-09T16:12:11.646Z,33.30
2022-08-09T16:16:57.907Z,33.00
2022-08-09T16:21:48.535Z,33.30
2022-08-09T16:26:37.315Z,33.30
2022-08-09T16:31:20.997Z,33.00
2022-08-09T16:36:26.717Z,32.10
2022-08-09T16:41:16.753Z,32.20
2022-08-09T16:46:03.548Z,31.50
2022-08-09T16:50:49.746Z,31.60
2022-08-09T16:55:57.924Z,31.20
2022-08-09T17:00:46.570Z,30.80
2022-08-09T17:06:06.952Z,30.50
2022-08-09T17:10:36.589Z,30.40
2022-08-09T17:15:31.134Z,30.50
2022-08-09T17:20:32.593Z,30.20
2022-08-09T17:25:23.689Z,29.70
2022-08-09T17:30:13.170Z,29.20
2022-08-09T17:35:07.789Z,29.30
2022-08-09T17:39:56.666Z,29.20
2022-08-09T17:44:49.056Z,28.90
2022-08-09T17:49:33.462Z,28.70
2022-08-09T17:54:18.752Z,28.40
2022-08-09T17:59:15.974Z,28.10
2022-08-09T18:04:02.115Z,27.50
2022-08-09T18:08:46.100Z,27.10
2022-08-09T18:13:39.343Z,26.70
2022-08-09T18:18:36.340Z,26.30
2022-08-09T18:24:11.045Z,26.00
2022-08-09T18:30:39.959Z,25.60
2022-08-09T18:33:36.368Z,25.30
2022-08-09T18:38:20.502Z,25.10
2022-08-09T18:43:08.933Z,24.70
2022-08-09T18:47:52.873Z,24.40
2022-08-09T18:52:36.999Z,24.30
2022-08-09T18:57:21.982Z,23.80
2022-08-09T19:02:08.571Z,23.50
2022-08-09T19:06:54.159Z,23.20
2022-08-09T19:11:38.589Z,23.10
2022-08-09T19:16:22.373Z,22.80
2022-08-09T19:21:47.935Z,22.80
2022-08-09T19:26:29.185Z,22.70
2022-08-09T19:31:16.832Z,22.50
2022-08-09T19:36:00.853Z,22.20
2022-08-09T19:40:46.335Z,22.00
2022-08-09T19:45:40.350Z,21.80
2022-08-09T19:50:51.184Z,21.80
2022-08-09T19:55:53.127Z,21.60
2022-08-09T20:00:34.901Z,21.40
2022-08-09T20:05:18.439Z,21.10
2022-08-09T20:10:17.620Z,20.80
2022-08-09T20:16:34.684Z,20.80
2022-08-09T20:20:14.778Z,20.60
2022-08-09T20:24:58.449Z,20.70
2022-08-09T20:29:44.658Z,20.70
2022-08-09T20:34:30.575Z,20.40
2022-08-09T20:40:28.380Z,20.50
2022-08-09T20:50:47.456Z,20.40
2022-08-09T20:55:21.361Z,20.80
2022-08-09T21:00:30.866Z,20.60
2022-08-09T21:05:56.446Z,20.50
2022-08-09T21:10:18.731Z,20.50
2022-08-09T21:15:12.700Z,20.60
2022-08-09T21:20:17.676Z,20.40
2022-08-09T21:25:20.844Z,20.20
2022-08-09T21:30:07.951Z,20.00
2022-08-09T21:34:55.683Z,19.80
2022-08-09T21:39:42.289Z,19.60
2022-08-09T21:44:34.062Z,19.40
2022-08-09T21:49:19.905Z,19.30
2022-08-09T21:54:03.390Z,19.10
2022-08-09T21:58:46.795Z,18.90
2022-08-09T22:03:32.306Z,19.00
2022-08-09T22:08:17.464Z,18.90
2022-08-09T22:13:00.968Z,18.90
2022-08-09T22:17:51.438Z,18.80
2022-08-09T22:22:35.588Z,18.70
2022-08-09T22:27:22.561Z,18.70
2022-08-09T22:32:07.147Z,18.60
2022-08-09T22:37:13.602Z,18.50
2022-08-09T22:41:57.472Z,18.40
2022-08-09T22:48:18.624Z,18.20
2022-08-09T22:51:49.969Z,18.00
2022-08-09T22:56:41.450Z,18.00
2022-08-09T23:01:25.238Z,17.90
2022-08-09T23:06:14.289Z,17.80
2022-08-09T23:10:58.109Z,17.60
2022-08-09T23:15:41.726Z,17.50
2022-08-09T23:20:26.402Z,17.40
2022-08-09T23:25:12.000Z,17.50
2022-08-09T23:29:55.537Z,17.40
2022-08-09T23:34:39.066Z,17.40
2022-08-09T23:39:22.621Z,17.30
2022-08-09T23:44:07.714Z,17.20
2022-08-09T23:48:51.187Z,16.90
2022-08-09T23:53:37.866Z,16.90
2022-08-09T23:58:27.706Z,16.80
